Terminal Aerodrome Forecast
Issued by NWS

Home | Current Version | Previous Version | Text Only | Print | Product List | Glossary Off
Versions: 1 2 3 4 5 6 7 8 9 10 11 12 13 14 15 16 17 18 19 20 21 22 23 24 25 26 27 28 29 30 31 32 33 34 35

000
FTUS43 KGRB 280114 AAA
TAFRHI
TAF AMD
KRHI 280114Z 2801/2824 13006KT P6SM -SHRA SCT009 OVC015
     FM280500 VRB03KT 3SM BR BKN007
     FM280900 VRB03KT 1SM BR OVC004
      TEMPO 2809/2813 1/2SM FG VV002
     FM281500 29004KT 6SM BR SCT005 BKN015
     FM281700 24005KT P6SM SCT025=

USA.gov is the U.S. government's official web portal to all federal, state and local government web resources and services.